sensor_id;sensor_type;location;lat;lon;timestamp;temperature;humidity
22680;DHT22;11507;44.858;10.374;2023-04-06T00:01:35;0.00;99.90
22680;DHT22;11507;44.858;10.374;2023-04-06T00:04:01;0.00;99.90
22680;DHT22;11507;44.858;10.374;2023-04-06T00:06:30;0.00;99.90
22680;DHT22;11507;44.858;10.374;2023-04-06T00:08:57;-0.10;99.90
22680;DHT22;11507;44.858;10.374;2023-04-06T00:11:23;-0.10;99.90
22680;DHT22;11507;44.858;10.374;2023-04-06T00:13:49;-0.20;99.90
22680;DHT22;11507;44.858;10.374;2023-04-06T00:19:43;-0.20;99.90
22680;DHT22;11507;44.858;10.374;2023-04-06T00:22:09;-0.20;99.90
22680;DHT22;11507;44.858;10.374;2023-04-06T00:24:34;-0.30;99.90
22680;DHT22;11507;44.858;10.374;2023-04-06T00:27:00;-0.30;99.90
22680;DHT22;11507;44.858;10.374;2023-04-06T00:29:26;-0.30;99.90
22680;DHT22;11507;44.858;10.374;2023-04-06T00:31:52;-0.30;99.90
22680;DHT22;11507;44.858;10.374;2023-04-06T00:34:18;-0.30;99.90
22680;DHT22;11507;44.858;10.374;2023-04-06T00:36:44;-0.30;99.90
22680;DHT22;11507;44.858;10.374;2023-04-06T00:39:10;-0.20;99.90
22680;DHT22;11507;44.858;10.374;2023-04-06T00:41:36;-0.20;99.90
22680;DHT22;11507;44.858;10.374;2023-04-06T00:44:02;-0.20;99.90
22680;DHT22;11507;44.858;10.374;2023-04-06T00:46:28;-0.10;99.90
22680;DHT22;11507;44.858;10.374;2023-04-06T00:48:54;-0.10;99.90
22680;DHT22;11507;44.858;10.374;2023-04-06T00:51:20;-0.10;99.90
22680;DHT22;11507;44.858;10.374;2023-04-06T00:53:46;-0.10;99.90
22680;DHT22;11507;44.858;10.374;2023-04-06T00:56:12;-0.10;99.90
22680;DHT22;11507;44.858;10.374;2023-04-06T00:58:49;-0.20;99.90
22680;DHT22;11507;44.858;10.374;2023-04-06T01:01:15;-0.20;99.90
22680;DHT22;11507;44.858;10.374;2023-04-06T01:03:41;-0.30;99.90
22680;DHT22;11507;44.858;10.374;2023-04-06T01:06:09;-0.40;99.90
22680;DHT22;11507;44.858;10.374;2023-04-06T01:08:42;-0.40;99.90
22680;DHT22;11507;44.858;10.374;2023-04-06T01:11:18;-0.40;99.90
22680;DHT22;11507;44.858;10.374;2023-04-06T01:13:46;-0.40;99.90
22680;DHT22;11507;44.858;10.374;2023-04-06T01:16:35;-0.40;99.90
22680;DHT22;11507;44.858;10.374;2023-04-06T01:19:13;-0.40;99.90
22680;DHT22;11507;44.858;10.374;2023-04-06T01:21:44;-0.50;99.90
22680;DHT22;11507;44.858;10.374;2023-04-06T01:24:36;-0.60;99.90
22680;DHT22;11507;44.858;10.374;2023-04-06T01:27:02;-0.60;99.90
22680;DHT22;11507;44.858;10.374;2023-04-06T01:29:36;-0.70;99.90
22680;DHT22;11507;44.858;10.374;2023-04-06T01:32:05;-0.70;99.90
22680;DHT22;11507;44.858;10.374;2023-04-06T01:34:35;-0.70;99.90
22680;DHT22;11507;44.858;10.374;2023-04-06T01:37:04;-0.70;99.90
22680;DHT22;11507;44.858;10.374;2023-04-06T01:39:31;-0.80;99.90
22680;DHT22;11507;44.858;10.374;2023-04-06T01:41:57;-0.80;99.90
22680;DHT22;11507;44.858;10.374;2023-04-06T01:44:24;-0.80;99.90
22680;DHT22;11507;44.858;10.374;2023-04-06T01:47:02;-0.80;99.90
22680;DHT22;11507;44.858;10.374;2023-04-06T01:49:27;-0.80;99.90
22680;DHT22;11507;44.858;10.374;2023-04-06T01:51:55;-0.90;99.90
22680;DHT22;11507;44.858;10.374;2023-04-06T01:54:21;-0.80;99.90
22680;DHT22;11507;44.858;10.374;2023-04-06T01:57:04;-0.90;99.90
22680;DHT22;11507;44.858;10.374;2023-04-06T01:59:53;-0.90;99.90
22680;DHT22;11507;44.858;10.374;2023-04-06T02:02:38;-0.90;99.90
22680;DHT22;11507;44.858;10.374;2023-04-06T02:05:10;-0.90;99.90
22680;DHT22;11507;44.858;10.374;2023-04-06T02:07:38;-0.90;99.90
22680;DHT22;11507;44.858;10.374;2023-04-06T02:10:04;-0.90;99.90
22680;DHT22;11507;44.858;10.374;2023-04-06T02:12:36;-0.90;99.90
22680;DHT22;11507;44.858;10.374;2023-04-06T02:15:03;-1.00;99.90
22680;DHT22;11507;44.858;10.374;2023-04-06T02:17:29;-1.00;99.90
22680;DHT22;11507;44.858;10.374;2023-04-06T02:19:55;-1.00;99.90
22680;DHT22;11507;44.858;10.374;2023-04-06T02:22:20;-1.00;99.90
22680;DHT22;11507;44.858;10.374;2023-04-06T02:24:46;-1.00;99.90
22680;DHT22;11507;44.858;10.374;2023-04-06T02:27:13;-1.10;99.90
22680;DHT22;11507;44.858;10.374;2023-04-06T02:29:39;-1.10;99.90
22680;DHT22;11507;44.858;10.374;2023-04-06T02:32:05;-1.10;99.90
22680;DHT22;11507;44.858;10.374;2023-04-06T02:34:32;-1.10;99.90
22680;DHT22;11507;44.858;10.374;2023-04-06T02:36:57;-1.10;99.90
22680;DHT22;11507;44.858;10.374;2023-04-06T02:39:23;-1.10;99.90
22680;DHT22;11507;44.858;10.374;2023-04-06T02:41:49;-1.10;99.90
22680;DHT22;11507;44.858;10.374;2023-04-06T02:44:20;-1.10;99.90
22680;DHT22;11507;44.858;10.374;2023-04-06T02:46:46;-1.10;99.90
22680;DHT22;11507;44.858;10.374;2023-04-06T02:49:12;-1.20;99.90
22680;DHT22;11507;44.858;10.374;2023-04-06T02:51:38;-1.20;99.90
22680;DHT22;11507;44.858;10.374;2023-04-06T02:54:17;-1.10;99.90
22680;DHT22;11507;44.858;10.374;2023-04-06T02:56:43;-0.90;99.90
22680;DHT22;11507;44.858;10.374;2023-04-06T02:59:08;-0.90;99.90
22680;DHT22;11507;44.858;10.374;2023-04-06T03:01:35;-1.10;99.90
22680;DHT22;11507;44.858;10.374;2023-04-06T03:04:04;-1.20;99.90
22680;DHT22;11507;44.858;10.374;2023-04-06T03:06:30;-1.20;99.90
22680;DHT22;11507;44.858;10.374;2023-04-06T03:09:02;-1.40;99.90
22680;DHT22;11507;44.858;10.374;2023-04-06T03:11:30;-1.50;99.90
22680;DHT22;11507;44.858;10.374;2023-04-06T03:13:55;-1.60;99.90
22680;DHT22;11507;44.858;10.374;2023-04-06T03:16:21;-1.70;99.90
22680;DHT22;11507;44.858;10.374;2023-04-06T03:18:47;-1.70;99.90
22680;DHT22;11507;44.858;10.374;2023-04-06T03:21:13;-1.80;99.90
22680;DHT22;11507;44.858;10.374;2023-04-06T03:23:51;-1.80;99.90
22680;DHT22;11507;44.858;10.374;2023-04-06T03:26:17;-1.90;99.90
22680;DHT22;11507;44.858;10.374;2023-04-06T03:28:42;-1.90;99.90
22680;DHT22;11507;44.858;10.374;2023-04-06T03:31:08;-2.00;99.90
22680;DHT22;11507;44.858;10.374;2023-04-06T03:33:45;-2.00;99.90
22680;DHT22;11507;44.858;10.374;2023-04-06T03:36:17;-2.00;99.90
22680;DHT22;11507;44.858;10.374;2023-04-06T03:38:43;-2.00;99.90
22680;DHT22;11507;44.858;10.374;2023-04-06T03:41:11;-2.00;99.90
22680;DHT22;11507;44.858;10.374;2023-04-06T03:43:40;-1.90;99.90
22680;DHT22;11507;44.858;10.374;2023-04-06T03:46:06;-1.80;99.90
22680;DHT22;11507;44.858;10.374;2023-04-06T03:48:32;-1.80;99.90
22680;DHT22;11507;44.858;10.374;2023-04-06T03:51:02;-1.80;99.90
22680;DHT22;11507;44.858;10.374;2023-04-06T03:53:28;-1.70;99.90
22680;DHT22;11507;44.858;10.374;2023-04-06T03:55:54;-1.70;99.90
22680;DHT22;11507;44.858;10.374;2023-04-06T03:58:20;-1.60;99.90
22680;DHT22;11507;44.858;10.374;2023-04-06T04:00:45;-1.60;99.90
22680;DHT22;11507;44.858;10.374;2023-04-06T04:03:11;-1.60;99.90
22680;DHT22;11507;44.858;10.374;2023-04-06T04:05:37;-1.60;99.90
22680;DHT22;11507;44.858;10.374;2023-04-06T04:08:03;-1.60;99.90
22680;DHT22;11507;44.858;10.374;2023-04-06T04:10:30;-1.70;99.90
22680;DHT22;11507;44.858;10.374;2023-04-06T04:12:56;-1.70;99.90
22680;DHT22;11507;44.858;10.374;2023-04-06T04:15:22;-1.60;99.90
22680;DHT22;11507;44.858;10.374;2023-04-06T04:17:47;-1.70;99.90
22680;DHT22;11507;44.858;10.374;2023-04-06T04:20:15;-1.60;99.90
22680;DHT22;11507;44.858;10.374;2023-04-06T04:22:41;-1.60;99.90
22680;DHT22;11507;44.858;10.374;2023-04-06T04:25:09;-1.60;99.90
22680;DHT22;11507;44.858;10.374;2023-04-06T04:27:40;-1.60;99.90
22680;DHT22;11507;44.858;10.374;2023-04-06T04:30:05;-1.60;99.90
22680;DHT22;11507;44.858;10.374;2023-04-06T04:32:31;-1.60;99.90
22680;DHT22;11507;44.858;10.374;2023-04-06T04:35:00;-1.70;99.90
22680;DHT22;11507;44.858;10.374;2023-04-06T04:37:36;-1.70;99.90
22680;DHT22;11507;44.858;10.374;2023-04-06T04:40:03;-1.70;99.90
22680;DHT22;11507;44.858;10.374;2023-04-06T04:42:33;-1.80;99.90
22680;DHT22;11507;44.858;10.374;2023-04-06T04:45:00;-1.90;99.90
22680;DHT22;11507;44.858;10.374;2023-04-06T04:47:36;-1.90;99.90
22680;DHT22;11507;44.858;10.374;2023-04-06T04:50:03;-1.90;99.90
22680;DHT22;11507;44.858;10.374;2023-04-06T04:52:30;-1.90;99.90
22680;DHT22;11507;44.858;10.374;2023-04-06T04:55:10;-1.90;99.90
22680;DHT22;11507;44.858;10.374;2023-04-06T04:57:36;-1.90;99.90
22680;DHT22;11507;44.858;10.374;2023-04-06T05:00:04;-1.90;99.90
22680;DHT22;11507;44.858;10.374;2023-04-06T05:02:32;-2.00;99.90
22680;DHT22;11507;44.858;10.374;2023-04-06T05:05:19;-2.00;99.90
22680;DHT22;11507;44.858;10.374;2023-04-06T05:07:46;-2.00;99.90
22680;DHT22;11507;44.858;10.374;2023-04-06T05:10:21;-2.00;99.90
22680;DHT22;11507;44.858;10.374;2023-04-06T05:12:58;-2.00;99.90
22680;DHT22;11507;44.858;10.374;2023-04-06T05:15:26;-2.00;99.90
22680;DHT22;11507;44.858;10.374;2023-04-06T05:17:57;-1.90;99.90
22680;DHT22;11507;44.858;10.374;2023-04-06T05:20:30;-1.90;99.90
22680;DHT22;11507;44.858;10.374;2023-04-06T05:22:56;-1.70;99.90
22680;DHT22;11507;44.858;10.374;2023-04-06T05:25:22;-1.70;99.90
22680;DHT22;11507;44.858;10.374;2023-04-06T05:27:51;-1.60;99.90
22680;DHT22;11507;44.858;10.374;2023-04-06T05:30:28;-1.50;99.90
22680;DHT22;11507;44.858;10.374;2023-04-06T05:32:54;-1.40;99.90
22680;DHT22;11507;44.858;10.374;2023-04-06T05:35:23;-1.20;99.90
22680;DHT22;11507;44.858;10.374;2023-04-06T05:37:53;-1.10;99.90
22680;DHT22;11507;44.858;10.374;2023-04-06T05:40:22;-0.90;99.90
22680;DHT22;11507;44.858;10.374;2023-04-06T05:42:49;-0.80;99.90
22680;DHT22;11507;44.858;10.374;2023-04-06T05:45:15;-0.60;99.90
22680;DHT22;11507;44.858;10.374;2023-04-06T05:47:48;-0.40;99.90
22680;DHT22;11507;44.858;10.374;2023-04-06T05:50:24;-0.20;99.90
22680;DHT22;11507;44.858;10.374;2023-04-06T05:52:50;0.00;99.90
22680;DHT22;11507;44.858;10.374;2023-04-06T05:55:19;0.20;99.90
22680;DHT22;11507;44.858;10.374;2023-04-06T05:57:50;0.40;99.90
22680;DHT22;11507;44.858;10.374;2023-04-06T06:00:18;0.60;99.90
22680;DHT22;11507;44.858;10.374;2023-04-06T06:02:54;0.80;99.90
22680;DHT22;11507;44.858;10.374;2023-04-06T06:05:26;1.10;99.90
22680;DHT22;11507;44.858;10.374;2023-04-06T06:07:53;1.30;99.90
22680;DHT22;11507;44.858;10.374;2023-04-06T06:10:20;1.50;99.90
22680;DHT22;11507;44.858;10.374;2023-04-06T06:12:45;1.70;99.90
22680;DHT22;11507;44.858;10.374;2023-04-06T06:15:11;2.00;99.90
22680;DHT22;11507;44.858;10.374;2023-04-06T06:17:42;2.20;99.90
22680;DHT22;11507;44.858;10.374;2023-04-06T06:20:08;2.50;99.90
22680;DHT22;11507;44.858;10.374;2023-04-06T06:22:34;2.60;99.90
22680;DHT22;11507;44.858;10.374;2023-04-06T06:25:01;2.90;99.90
22680;DHT22;11507;44.858;10.374;2023-04-06T06:27:27;3.20;99.90
22680;DHT22;11507;44.858;10.374;2023-04-06T06:29:54;3.30;99.90
22680;DHT22;11507;44.858;10.374;2023-04-06T06:32:22;3.60;99.90
22680;DHT22;11507;44.858;10.374;2023-04-06T06:34:51;3.80;99.90
22680;DHT22;11507;44.858;10.374;2023-04-06T06:37:17;4.10;99.90
22680;DHT22;11507;44.858;10.374;2023-04-06T06:39:44;4.30;99.90
22680;DHT22;11507;44.858;10.374;2023-04-06T06:42:10;4.60;99.90
22680;DHT22;11507;44.858;10.374;2023-04-06T06:44:59;4.90;99.90
22680;DHT22;11507;44.858;10.374;2023-04-06T06:47:25;5.20;99.90
22680;DHT22;11507;44.858;10.374;2023-04-06T06:49:51;5.40;99.90
22680;DHT22;11507;44.858;10.374;2023-04-06T06:52:17;5.70;99.90
22680;DHT22;11507;44.858;10.374;2023-04-06T06:54:43;5.90;99.90
22680;DHT22;11507;44.858;10.374;2023-04-06T06:57:10;6.00;99.90
22680;DHT22;11507;44.858;10.374;2023-04-06T06:59:37;6.10;99.90
22680;DHT22;11507;44.858;10.374;2023-04-06T07:02:04;6.30;99.90
22680;DHT22;11507;44.858;10.374;2023-04-06T07:04:30;6.60;99.90
22680;DHT22;11507;44.858;10.374;2023-04-06T07:06:57;6.80;99.90
22680;DHT22;11507;44.858;10.374;2023-04-06T07:09:23;7.00;99.90
22680;DHT22;11507;44.858;10.374;2023-04-06T07:11:49;7.30;99.90
22680;DHT22;11507;44.858;10.374;2023-04-06T07:14:15;7.50;99.90
22680;DHT22;11507;44.858;10.374;2023-04-06T07:16:42;7.60;99.90
22680;DHT22;11507;44.858;10.374;2023-04-06T07:19:10;7.80;99.90
22680;DHT22;11507;44.858;10.374;2023-04-06T07:21:36;8.00;99.90
22680;DHT22;11507;44.858;10.374;2023-04-06T07:24:02;8.20;99.90
22680;DHT22;11507;44.858;10.374;2023-04-06T07:26:28;8.30;99.90
22680;DHT22;11507;44.858;10.374;2023-04-06T07:28:55;8.40;99.90
22680;DHT22;11507;44.858;10.374;2023-04-06T07:31:23;8.50;98.90
22680;DHT22;11507;44.858;10.374;2023-04-06T07:33:48;8.70;99.70
22680;DHT22;11507;44.858;10.374;2023-04-06T07:36:20;8.80;95.40
22680;DHT22;11507;44.858;10.374;2023-04-06T07:38:46;8.90;96.80
22680;DHT22;11507;44.858;10.374;2023-04-06T07:41:14;9.00;98.00
22680;DHT22;11507;44.858;10.374;2023-04-06T07:43:40;9.20;99.10
22680;DHT22;11507;44.858;10.374;2023-04-06T07:46:07;9.50;97.60
22680;DHT22;11507;44.858;10.374;2023-04-06T07:48:33;9.70;96.90
22680;DHT22;11507;44.858;10.374;2023-04-06T07:51:06;9.80;94.70
22680;DHT22;11507;44.858;10.374;2023-04-06T07:53:36;9.80;95.20
22680;DHT22;11507;44.858;10.374;2023-04-06T07:56:03;10.00;92.60
22680;DHT22;11507;44.858;10.374;2023-04-06T07:58:28;9.90;91.20
22680;DHT22;11507;44.858;10.374;2023-04-06T08:00:54;10.10;91.00
22680;DHT22;11507;44.858;10.374;2023-04-06T08:03:21;10.00;90.30
22680;DHT22;11507;44.858;10.374;2023-04-06T08:05:51;10.10;90.00
22680;DHT22;11507;44.858;10.374;2023-04-06T08:08:18;10.20;85.90
22680;DHT22;11507;44.858;10.374;2023-04-06T08:10:45;10.20;85.60
22680;DHT22;11507;44.858;10.374;2023-04-06T08:13:11;10.30;87.20
22680;DHT22;11507;44.858;10.374;2023-04-06T08:15:37;10.50;80.90
22680;DHT22;11507;44.858;10.374;2023-04-06T08:18:03;10.60;78.00
22680;DHT22;11507;44.858;10.374;2023-04-06T08:20:29;10.90;85.30
22680;DHT22;11507;44.858;10.374;2023-04-06T08:22:55;11.30;86.90
22680;DHT22;11507;44.858;10.374;2023-04-06T08:25:20;11.50;79.40
22680;DHT22;11507;44.858;10.374;2023-04-06T08:27:46;11.60;80.50
22680;DHT22;11507;44.858;10.374;2023-04-06T08:30:12;11.70;72.20
22680;DHT22;11507;44.858;10.374;2023-04-06T08:32:40;11.80;66.70
22680;DHT22;11507;44.858;10.374;2023-04-06T08:35:07;11.90;64.60
22680;DHT22;11507;44.858;10.374;2023-04-06T08:37:34;11.90;66.00
22680;DHT22;11507;44.858;10.374;2023-04-06T08:40:00;12.10;68.60
22680;DHT22;11507;44.858;10.374;2023-04-06T08:42:28;12.30;64.10
22680;DHT22;11507;44.858;10.374;2023-04-06T08:44:57;12.40;65.00
22680;DHT22;11507;44.858;10.374;2023-04-06T08:47:23;12.60;65.90
22680;DHT22;11507;44.858;10.374;2023-04-06T08:49:49;12.80;70.30
22680;DHT22;11507;44.858;10.374;2023-04-06T08:52:15;13.20;68.00
22680;DHT22;11507;44.858;10.374;2023-04-06T08:54:43;13.50;70.70
22680;DHT22;11507;44.858;10.374;2023-04-06T08:57:09;13.70;65.70
22680;DHT22;11507;44.858;10.374;2023-04-06T08:59:35;13.90;64.30
22680;DHT22;11507;44.858;10.374;2023-04-06T09:02:03;13.80;59.10
22680;DHT22;11507;44.858;10.374;2023-04-06T09:04:31;13.90;61.80
22680;DHT22;11507;44.858;10.374;2023-04-06T09:06:58;13.80;58.30
22680;DHT22;11507;44.858;10.374;2023-04-06T09:09:24;14.00;65.60
22680;DHT22;11507;44.858;10.374;2023-04-06T09:11:51;14.00;61.90
22680;DHT22;11507;44.858;10.374;2023-04-06T09:14:17;14.20;64.70
22680;DHT22;11507;44.858;10.374;2023-04-06T09:16:58;14.70;67.70
22680;DHT22;11507;44.858;10.374;2023-04-06T09:19:24;15.10;61.50
22680;DHT22;11507;44.858;10.374;2023-04-06T09:22:00;15.30;58.10
22680;DHT22;11507;44.858;10.374;2023-04-06T09:24:26;15.40;57.50
22680;DHT22;11507;44.858;10.374;2023-04-06T09:26:52;15.50;57.50
22680;DHT22;11507;44.858;10.374;2023-04-06T09:29:22;15.90;59.80
22680;DHT22;11507;44.858;10.374;2023-04-06T09:31:48;16.10;59.30
22680;DHT22;11507;44.858;10.374;2023-04-06T09:34:21;16.30;55.60
22680;DHT22;11507;44.858;10.374;2023-04-06T09:36:48;16.40;58.00
22680;DHT22;11507;44.858;10.374;2023-04-06T09:39:15;16.80;56.20
22680;DHT22;11507;44.858;10.374;2023-04-06T09:41:41;17.20;55.30
22680;DHT22;11507;44.858;10.374;2023-04-06T09:44:08;17.50;52.00
22680;DHT22;11507;44.858;10.374;2023-04-06T09:46:40;17.80;54.50
22680;DHT22;11507;44.858;10.374;2023-04-06T09:49:06;18.20;54.80
22680;DHT22;11507;44.858;10.374;2023-04-06T09:54:04;18.40;48.20
22680;DHT22;11507;44.858;10.374;2023-04-06T09:56:37;18.60;49.70
22680;DHT22;11507;44.858;10.374;2023-04-06T09:59:05;19.00;48.20
22680;DHT22;11507;44.858;10.374;2023-04-06T10:01:35;19.10;46.40
22680;DHT22;11507;44.858;10.374;2023-04-06T10:04:20;19.20;45.50
22680;DHT22;11507;44.858;10.374;2023-04-06T10:06:47;19.50;44.00
22680;DHT22;11507;44.858;10.374;2023-04-06T10:09:20;20.00;48.50
22680;DHT22;11507;44.858;10.374;2023-04-06T10:11:50;20.60;44.60
22680;DHT22;11507;44.858;10.374;2023-04-06T10:14:18;20.40;43.50
22680;DHT22;11507;44.858;10.374;2023-04-06T10:16:44;20.60;46.80
22680;DHT22;11507;44.858;10.374;2023-04-06T10:19:23;20.50;44.30
22680;DHT22;11507;44.858;10.374;2023-04-06T10:21:53;20.50;42.60
22680;DHT22;11507;44.858;10.374;2023-04-06T10:24:20;20.40;43.40
22680;DHT22;11507;44.858;10.374;2023-04-06T10:26:58;20.40;44.00
22680;DHT22;11507;44.858;10.374;2023-04-06T10:29:24;20.50;43.20
22680;DHT22;11507;44.858;10.374;2023-04-06T10:31:52;21.10;43.70
22680;DHT22;11507;44.858;10.374;2023-04-06T10:34:18;21.70;43.90
22680;DHT22;11507;44.858;10.374;2023-04-06T10:36:44;22.40;45.30
22680;DHT22;11507;44.858;10.374;2023-04-06T10:39:10;23.10;41.00
22680;DHT22;11507;44.858;10.374;2023-04-06T10:41:45;23.30;35.70
22680;DHT22;11507;44.858;10.374;2023-04-06T10:44:21;23.80;38.60
22680;DHT22;11507;44.858;10.374;2023-04-06T10:46:54;24.50;39.50
22680;DHT22;11507;44.858;10.374;2023-04-06T10:49:20;24.90;41.50
22680;DHT22;11507;44.858;10.374;2023-04-06T10:51:50;25.60;41.50
22680;DHT22;11507;44.858;10.374;2023-04-06T10:54:16;26.00;37.60
22680;DHT22;11507;44.858;10.374;2023-04-06T10:56:43;25.90;36.90
22680;DHT22;11507;44.858;10.374;2023-04-06T10:59:09;26.50;37.50
22680;DHT22;11507;44.858;10.374;2023-04-06T11:01:36;26.90;38.90
22680;DHT22;11507;44.858;10.374;2023-04-06T11:04:02;27.30;34.60
22680;DHT22;11507;44.858;10.374;2023-04-06T11:06:28;27.70;34.70
22680;DHT22;11507;44.858;10.374;2023-04-06T11:08:59;27.40;30.20
22680;DHT22;11507;44.858;10.374;2023-04-06T11:13:57;27.40;31.20
22680;DHT22;11507;44.858;10.374;2023-04-06T11:16:24;27.30;33.00
22680;DHT22;11507;44.858;10.374;2023-04-06T11:18:57;27.20;30.60
22680;DHT22;11507;44.858;10.374;2023-04-06T11:21:33;26.90;29.10
22680;DHT22;11507;44.858;10.374;2023-04-06T11:24:15;27.00;32.50
22680;DHT22;11507;44.858;10.374;2023-04-06T11:26:46;27.20;31.30
22680;DHT22;11507;44.858;10.374;2023-04-06T11:29:17;26.80;28.90
22680;DHT22;11507;44.858;10.374;2023-04-06T11:31:47;26.70;29.00
22680;DHT22;11507;44.858;10.374;2023-04-06T11:34:23;25.80;29.90
22680;DHT22;11507;44.858;10.374;2023-04-06T11:36:59;26.10;32.50
22680;DHT22;11507;44.858;10.374;2023-04-06T11:39:26;27.00;32.90
22680;DHT22;11507;44.858;10.374;2023-04-06T11:42:02;27.60;34.60
22680;DHT22;11507;44.858;10.374;2023-04-06T11:44:31;28.40;32.20
22680;DHT22;11507;44.858;10.374;2023-04-06T11:46:58;29.20;30.20
22680;DHT22;11507;44.858;10.374;2023-04-06T11:49:27;29.50;32.50
22680;DHT22;11507;44.858;10.374;2023-04-06T11:51:55;29.60;30.10
22680;DHT22;11507;44.858;10.374;2023-04-06T11:54:32;29.80;28.80
22680;DHT22;11507;44.858;10.374;2023-04-06T11:56:57;29.30;28.00
22680;DHT22;11507;44.858;10.374;2023-04-06T11:59:23;29.20;28.10
22680;DHT22;11507;44.858;10.374;2023-04-06T12:01:49;29.00;29.10
22680;DHT22;11507;44.858;10.374;2023-04-06T12:04:15;29.10;28.50
22680;DHT22;11507;44.858;10.374;2023-04-06T12:06:41;29.40;29.60
22680;DHT22;11507;44.858;10.374;2023-04-06T12:09:06;30.00;29.00
22680;DHT22;11507;44.858;10.374;2023-04-06T12:11:34;30.50;29.40
22680;DHT22;11507;44.858;10.374;2023-04-06T12:14:00;30.80;28.60
22680;DHT22;11507;44.858;10.374;2023-04-06T12:16:31;30.80;28.70
22680;DHT22;11507;44.858;10.374;2023-04-06T12:18:57;30.50;27.00
22680;DHT22;11507;44.858;10.374;2023-04-06T12:21:23;30.50;30.00
22680;DHT22;11507;44.858;10.374;2023-04-06T12:23:49;30.40;28.90
22680;DHT22;11507;44.858;10.374;2023-04-06T12:26:15;30.40;26.70
22680;DHT22;11507;44.858;10.374;2023-04-06T12:28:41;30.50;27.10
22680;DHT22;11507;44.858;10.374;2023-04-06T12:31:13;30.60;25.00
22680;DHT22;11507;44.858;10.374;2023-04-06T12:33:40;30.50;27.30
22680;DHT22;11507;44.858;10.374;2023-04-06T12:36:11;29.30;26.60
22680;DHT22;11507;44.858;10.374;2023-04-06T12:38:38;29.50;27.50
22680;DHT22;11507;44.858;10.374;2023-04-06T12:41:05;29.80;28.80
22680;DHT22;11507;44.858;10.374;2023-04-06T12:43:31;29.20;26.30
22680;DHT22;11507;44.858;10.374;2023-04-06T12:45:57;28.50;27.00
22680;DHT22;11507;44.858;10.374;2023-04-06T12:48:22;28.50;29.30
22680;DHT22;11507;44.858;10.374;2023-04-06T12:50:57;29.30;28.20
22680;DHT22;11507;44.858;10.374;2023-04-06T12:53:23;29.30;28.00
22680;DHT22;11507;44.858;10.374;2023-04-06T12:55:50;29.60;26.50
22680;DHT22;11507;44.858;10.374;2023-04-06T12:58:15;29.70;26.30
22680;DHT22;11507;44.858;10.374;2023-04-06T13:00:42;29.30;25.60
22680;DHT22;11507;44.858;10.374;2023-04-06T13:03:08;29.60;27.80
22680;DHT22;11507;44.858;10.374;2023-04-06T13:05:34;30.60;27.20
22680;DHT22;11507;44.858;10.374;2023-04-06T13:08:02;30.30;24.20
22680;DHT22;11507;44.858;10.374;2023-04-06T13:10:27;29.10;24.50
22680;DHT22;11507;44.858;10.374;2023-04-06T13:12:53;28.80;26.20
22680;DHT22;11507;44.858;10.374;2023-04-06T13:15:20;28.90;26.70
22680;DHT22;11507;44.858;10.374;2023-04-06T13:17:46;29.30;28.30
22680;DHT22;11507;44.858;10.374;2023-04-06T13:20:11;29.60;25.50
22680;DHT22;11507;44.858;10.374;2023-04-06T13:22:38;30.00;28.50
22680;DHT22;11507;44.858;10.374;2023-04-06T13:25:04;30.20;25.40
22680;DHT22;11507;44.858;10.374;2023-04-06T13:27:31;30.00;25.00
22680;DHT22;11507;44.858;10.374;2023-04-06T13:29:59;29.30;25.30
22680;DHT22;11507;44.858;10.374;2023-04-06T13:32:27;29.40;27.40
22680;DHT22;11507;44.858;10.374;2023-04-06T13:34:56;29.40;25.70
22680;DHT22;11507;44.858;10.374;2023-04-06T13:37:24;28.70;24.50
22680;DHT22;11507;44.858;10.374;2023-04-06T13:39:50;28.70;25.90
22680;DHT22;11507;44.858;10.374;2023-04-06T13:42:16;29.40;27.40
22680;DHT22;11507;44.858;10.374;2023-04-06T13:44:42;29.80;28.80
22680;DHT22;11507;44.858;10.374;2023-04-06T13:47:07;30.30;25.70
22680;DHT22;11507;44.858;10.374;2023-04-06T13:49:34;29.50;24.90
22680;DHT22;11507;44.858;10.374;2023-04-06T13:52:01;28.60;25.30
22680;DHT22;11507;44.858;10.374;2023-04-06T13:54:27;28.80;27.10
22680;DHT22;11507;44.858;10.374;2023-04-06T13:56:54;28.80;27.10
22680;DHT22;11507;44.858;10.374;2023-04-06T13:59:21;29.30;27.30
22680;DHT22;11507;44.858;10.374;2023-04-06T14:01:48;30.30;27.60
22680;DHT22;11507;44.858;10.374;2023-04-06T14:04:15;31.10;25.90
22680;DHT22;11507;44.858;10.374;2023-04-06T14:06:41;31.40;24.70
22680;DHT22;11507;44.858;10.374;2023-04-06T14:09:07;31.50;24.40
22680;DHT22;11507;44.858;10.374;2023-04-06T14:11:53;32.30;27.20
22680;DHT22;11507;44.858;10.374;2023-04-06T14:14:20;32.80;25.90
22680;DHT22;11507;44.858;10.374;2023-04-06T14:16:47;32.90;25.40
22680;DHT22;11507;44.858;10.374;2023-04-06T14:19:15;32.60;25.90
22680;DHT22;11507;44.858;10.374;2023-04-06T14:21:46;32.80;27.00
22680;DHT22;11507;44.858;10.374;2023-04-06T14:24:17;33.20;26.70
22680;DHT22;11507;44.858;10.374;2023-04-06T14:26:43;33.50;26.70
22680;DHT22;11507;44.858;10.374;2023-04-06T14:29:09;33.60;26.10
22680;DHT22;11507;44.858;10.374;2023-04-06T14:31:36;34.00;25.70
22680;DHT22;11507;44.858;10.374;2023-04-06T14:34:03;33.80;25.20
22680;DHT22;11507;44.858;10.374;2023-04-06T14:36:30;34.20;26.30
22680;DHT22;11507;44.858;10.374;2023-04-06T14:39:02;34.40;25.20
22680;DHT22;11507;44.858;10.374;2023-04-06T14:41:30;34.00;24.20
22680;DHT22;11507;44.858;10.374;2023-04-06T14:43:57;34.00;24.80
22680;DHT22;11507;44.858;10.374;2023-04-06T14:46:23;33.80;25.00
22680;DHT22;11507;44.858;10.374;2023-04-06T14:48:49;33.80;25.30
22680;DHT22;11507;44.858;10.374;2023-04-06T14:51:16;33.70;25.30
22680;DHT22;11507;44.858;10.374;2023-04-06T14:53:42;33.40;24.00
22680;DHT22;11507;44.858;10.374;2023-04-06T14:56:09;31.90;23.20
22680;DHT22;11507;44.858;10.374;2023-04-06T14:58:34;30.90;23.60
22680;DHT22;11507;44.858;10.374;2023-04-06T15:01:01;30.70;26.00
22680;DHT22;11507;44.858;10.374;2023-04-06T15:03:27;30.50;25.10
22680;DHT22;11507;44.858;10.374;2023-04-06T15:05:57;30.00;25.90
22680;DHT22;11507;44.858;10.374;2023-04-06T15:08:23;29.30;27.30
22680;DHT22;11507;44.858;10.374;2023-04-06T15:13:20;29.70;25.10
22680;DHT22;11507;44.858;10.374;2023-04-06T15:15:45;29.40;24.90
22680;DHT22;11507;44.858;10.374;2023-04-06T15:18:11;29.40;24.90
22680;DHT22;11507;44.858;10.374;2023-04-06T15:20:37;29.40;26.50
22680;DHT22;11507;44.858;10.374;2023-04-06T15:23:03;28.40;26.70
22680;DHT22;11507;44.858;10.374;2023-04-06T15:25:30;28.20;27.60
22680;DHT22;11507;44.858;10.374;2023-04-06T15:27:56;28.20;28.30
22680;DHT22;11507;44.858;10.374;2023-04-06T15:30:22;28.40;27.70
22680;DHT22;11507;44.858;10.374;2023-04-06T15:32:53;27.60;26.10
22680;DHT22;11507;44.858;10.374;2023-04-06T15:35:20;27.00;26.40